createdAt,value
2024-02-11T00:01:52.461Z,12.33
2024-02-11T00:04:55.393Z,11.32
2024-02-11T00:07:57.556Z,11.22
2024-02-11T00:10:59.909Z,10.45
2024-02-11T00:14:01.703Z,10.95
2024-02-11T00:17:03.660Z,11.45
2024-02-11T00:20:08.458Z,11.15
2024-02-11T00:23:10.395Z,11.31
2024-02-11T00:26:12.738Z,11.10
2024-02-11T00:29:15.607Z,11.16
2024-02-11T00:32:17.636Z,11.11
2024-02-11T00:35:20.177Z,11.57
2024-02-11T00:38:22.214Z,11.44
2024-02-11T00:41:23.934Z,11.16
2024-02-11T00:44:25.853Z,11.44
2024-02-11T00:47:29.635Z,11.16
2024-02-11T00:50:34.483Z,10.80
2024-02-11T00:53:37.399Z,11.67
2024-02-11T00:56:44.102Z,11.49
2024-02-11T00:59:45.903Z,11.57
2024-02-11T01:02:47.950Z,11.42
2024-02-11T01:05:49.766Z,11.32
2024-02-11T01:08:51.911Z,10.61
2024-02-11T01:11:53.743Z,10.91
2024-02-11T01:14:56.896Z,11.19
2024-02-11T01:17:58.820Z,10.90
2024-02-11T01:21:00.559Z,10.24
2024-02-11T01:24:02.669Z,9.62
2024-02-11T01:27:04.826Z,9.85
2024-02-11T01:30:08.316Z,9.95
2024-02-11T01:33:10.993Z,9.60
2024-02-11T01:36:13.774Z,9.47
2024-02-11T01:39:15.971Z,9.30
2024-02-11T01:42:18.101Z,8.69
2024-02-11T01:45:19.847Z,7.64
2024-02-11T01:48:22.069Z,7.71
2024-02-11T01:51:24.276Z,7.01
2024-02-11T01:54:28.143Z,7.08
2024-02-11T01:57:30.026Z,6.65
2024-02-11T02:00:32.528Z,6.58
2024-02-11T02:03:35.988Z,6.34
2024-02-11T02:06:38.652Z,6.48
2024-02-11T02:09:40.656Z,6.58
2024-02-11T02:12:43.343Z,6.22
2024-02-11T02:15:45.231Z,6.54
2024-02-11T02:18:47.484Z,6.39
2024-02-11T02:21:52.412Z,6.15
2024-02-11T02:24:54.177Z,6.34
2024-02-11T02:27:55.963Z,6.54
2024-02-11T02:30:57.742Z,6.15
2024-02-11T02:33:59.538Z,6.45
2024-02-11T02:37:01.381Z,6.41
2024-02-11T02:40:03.267Z,5.98
2024-02-11T02:43:12.051Z,6.38
2024-02-11T02:46:14.663Z,6.35
2024-02-11T02:49:16.590Z,6.20
2024-02-11T02:52:18.403Z,6.46
2024-02-11T02:55:21.182Z,6.43
2024-02-11T02:58:26.079Z,6.52
2024-02-11T03:01:27.937Z,6.58
2024-02-11T03:04:29.698Z,6.69
2024-02-11T03:07:31.713Z,6.35
2024-02-11T03:10:34.394Z,6.16
2024-02-11T03:13:36.226Z,6.16
2024-02-11T03:16:37.999Z,6.24
2024-02-11T03:19:42.962Z,6.15
2024-02-11T03:22:45.175Z,6.24
2024-02-11T03:25:46.983Z,6.17
2024-02-11T03:28:48.722Z,6.18
2024-02-11T03:31:50.934Z,6.39
2024-02-11T03:34:52.773Z,6.25
2024-02-11T03:37:54.583Z,6.06
2024-02-11T03:40:57.460Z,6.19
2024-02-11T03:43:59.800Z,6.20
2024-02-11T03:47:05.356Z,6.37
2024-02-11T03:50:08.739Z,6.33
2024-02-11T03:53:10.932Z,6.22
2024-02-11T03:56:12.752Z,6.39
2024-02-11T03:59:15.117Z,6.10
2024-02-11T04:02:19.697Z,6.32
2024-02-11T04:05:26.364Z,6.15
2024-02-11T04:08:30.810Z,6.21
2024-02-11T04:11:32.727Z,6.46
2024-02-11T04:14:35.223Z,6.27
2024-02-11T04:17:37.734Z,6.61
2024-02-11T04:20:39.984Z,6.32
2024-02-11T04:23:42.863Z,6.43
2024-02-11T04:26:44.725Z,6.61
2024-02-11T04:29:46.470Z,6.48
2024-02-11T04:32:49.476Z,6.62
2024-02-11T04:35:51.444Z,6.70
2024-02-11T04:38:53.384Z,6.56
2024-02-11T04:41:56.774Z,6.82
2024-02-11T04:44:58.545Z,6.57
2024-02-11T04:48:04.976Z,6.86
2024-02-11T04:51:08.715Z,6.62
2024-02-11T04:54:10.605Z,6.78
2024-02-11T04:57:12.332Z,6.96
2024-02-11T05:00:25.026Z,7.30
2024-02-11T05:03:29.049Z,7.19
2024-02-11T05:06:32.832Z,6.99
2024-02-11T05:09:38.469Z,7.73
2024-02-11T05:12:40.280Z,6.90
2024-02-11T05:15:44.330Z,7.18
2024-02-11T05:18:46.066Z,6.90
2024-02-11T05:21:49.298Z,7.20
2024-02-11T05:24:51.057Z,7.24
2024-02-11T05:27:58.389Z,6.98
2024-02-11T05:31:00.289Z,6.68
2024-02-11T05:37:03.815Z,7.02
2024-02-11T05:40:10.692Z,7.31
2024-02-11T05:43:13.832Z,7.66
2024-02-11T05:46:15.897Z,7.47
2024-02-11T05:49:19.858Z,7.68
2024-02-11T05:52:21.856Z,8.05
2024-02-11T05:55:23.795Z,8.15
2024-02-11T05:58:25.728Z,8.46
2024-02-11T06:01:27.493Z,8.25
2024-02-11T06:04:29.476Z,8.47
2024-02-11T06:07:31.386Z,9.08
2024-02-11T06:10:36.088Z,8.65
2024-02-11T06:13:38.260Z,9.22
2024-02-11T06:16:40.203Z,9.29
2024-02-11T06:19:42.286Z,9.48
2024-02-11T06:22:44.518Z,9.58
2024-02-11T06:25:46.383Z,9.37
2024-02-11T06:28:49.438Z,9.49
2024-02-11T06:31:52.325Z,9.23
2024-02-11T06:34:54.369Z,9.94
2024-02-11T06:37:57.812Z,9.71
2024-02-11T06:40:59.790Z,9.97
2024-02-11T06:44:05.285Z,9.86
2024-02-11T06:47:10.916Z,9.99
2024-02-11T06:50:17.761Z,9.91
2024-02-11T06:53:20.170Z,10.21
2024-02-11T06:56:22.012Z,9.98
2024-02-11T06:59:23.793Z,10.06
2024-02-11T07:02:29.182Z,10.54
2024-02-11T07:05:32.317Z,10.65
2024-02-11T07:08:34.351Z,10.49
2024-02-11T07:11:36.117Z,10.76
2024-02-11T07:14:37.904Z,9.99
2024-02-11T07:17:42.539Z,10.15
2024-02-11T07:20:44.447Z,9.94
2024-02-11T07:23:46.186Z,10.19
2024-02-11T07:26:48.741Z,10.10
2024-02-11T07:29:51.095Z,10.16
2024-02-11T07:32:52.917Z,10.25
2024-02-11T07:35:54.764Z,10.60
2024-02-11T07:38:56.921Z,10.31
2024-02-11T07:41:59.675Z,10.71
2024-02-11T07:45:01.650Z,10.27
2024-02-11T07:48:04.727Z,10.34
2024-02-11T07:51:09.976Z,9.83
2024-02-11T07:54:12.761Z,9.84
2024-02-11T07:57:14.553Z,10.02
2024-02-11T08:00:16.591Z,9.81
2024-02-11T08:03:18.474Z,9.86
2024-02-11T08:06:20.804Z,9.84
2024-02-11T08:09:22.583Z,9.77
2024-02-11T08:12:24.430Z,9.70
2024-02-11T08:15:26.242Z,9.71
2024-02-11T08:18:28.160Z,9.90
2024-02-11T08:21:30.334Z,10.50
2024-02-11T08:24:32.100Z,10.39
2024-02-11T08:27:33.834Z,11.11
2024-02-11T08:30:35.580Z,11.23
2024-02-11T08:33:37.645Z,11.27
2024-02-11T08:36:39.415Z,11.24
2024-02-11T08:39:41.355Z,10.80
2024-02-11T08:42:43.161Z,10.73
2024-02-11T08:45:44.903Z,10.26
2024-02-11T08:48:46.833Z,10.17
2024-02-11T08:51:48.939Z,10.02
2024-02-11T08:54:51.165Z,10.08
2024-02-11T08:57:54.403Z,10.09
2024-02-11T09:00:56.267Z,9.82
2024-02-11T09:04:00.214Z,10.18
2024-02-11T09:07:02.211Z,10.36
2024-02-11T09:10:04.346Z,10.36
2024-02-11T09:13:06.604Z,10.32
2024-02-11T09:16:10.608Z,10.67
2024-02-11T09:19:15.034Z,10.65
2024-02-11T09:22:17.334Z,10.64
2024-02-11T09:25:19.614Z,10.86
2024-02-11T09:28:22.128Z,10.65
2024-02-11T09:31:23.983Z,10.86
2024-02-11T09:34:26.060Z,10.63
2024-02-11T09:37:27.941Z,10.76
2024-02-11T09:40:29.680Z,10.75
2024-02-11T09:43:32.174Z,11.37
2024-02-11T09:46:37.557Z,11.24
2024-02-11T09:49:43.679Z,10.96
2024-02-11T09:52:49.349Z,10.88
2024-02-11T09:55:51.156Z,10.65
2024-02-11T09:58:53.657Z,11.17
2024-02-11T10:01:58.200Z,10.59
2024-02-11T10:05:07.183Z,10.25
2024-02-11T10:08:17.088Z,10.63
2024-02-11T10:11:20.495Z,10.37
2024-02-11T10:14:27.003Z,10.78
2024-02-11T10:17:33.235Z,11.13
2024-02-11T10:20:39.596Z,10.66
2024-02-11T10:23:42.187Z,10.29
2024-02-11T10:26:48.641Z,10.54
2024-02-11T10:29:51.807Z,10.61
2024-02-11T10:33:00.418Z,10.92
2024-02-11T10:36:05.719Z,11.40
2024-02-11T10:39:07.511Z,10.85
2024-02-11T10:42:09.931Z,11.32
2024-02-11T10:45:12.266Z,10.91
2024-02-11T10:48:14.337Z,10.89
2024-02-11T10:51:24.826Z,11.06
2024-02-11T10:54:28.233Z,11.39
2024-02-11T10:57:41.993Z,11.51
2024-02-11T11:00:51.483Z,11.37
2024-02-11T11:03:55.687Z,11.59
2024-02-11T11:06:58.771Z,11.69
2024-02-11T11:10:00.668Z,11.75
2024-02-11T11:13:02.579Z,11.78
2024-02-11T11:16:07.414Z,11.53
2024-02-11T11:19:14.786Z,11.75
2024-02-11T11:22:29.699Z,11.63
2024-02-11T11:25:33.440Z,11.21
2024-02-11T11:28:42.282Z,11.19
2024-02-11T11:31:47.296Z,11.63
2024-02-11T11:34:51.798Z,11.07
2024-02-11T11:38:02.378Z,11.15
2024-02-11T11:41:05.077Z,11.37
2024-02-11T11:44:07.043Z,11.42
2024-02-11T11:47:09.059Z,11.57
2024-02-11T11:50:11.073Z,10.70
2024-02-11T11:53:21.007Z,10.95
2024-02-11T11:56:25.108Z,11.12
2024-02-11T11:59:27.469Z,11.17
2024-02-11T12:02:34.396Z,10.84
2024-02-11T12:05:36.314Z,11.11
2024-02-11T12:08:39.354Z,11.33
2024-02-11T12:11:45.336Z,11.08
2024-02-11T12:14:48.337Z,10.97
2024-02-11T12:17:51.861Z,11.44
2024-02-11T12:20:54.753Z,11.04
2024-02-11T12:23:57.774Z,10.72
2024-02-11T12:26:59.828Z,10.55
2024-02-11T12:30:02.467Z,10.38
2024-02-11T12:33:05.146Z,9.97
2024-02-11T12:36:23.562Z,10.09
2024-02-11T12:39:27.150Z,10.17
2024-02-11T12:42:28.878Z,9.84
2024-02-11T12:45:30.717Z,10.12
2024-02-11T12:48:32.556Z,9.22
2024-02-11T12:51:34.958Z,9.12
2024-02-11T12:54:37.162Z,9.28
2024-02-11T12:57:38.913Z,8.72
2024-02-11T13:00:40.702Z,9.02
2024-02-11T13:03:44.608Z,9.27
2024-02-11T13:06:46.637Z,9.20
2024-02-11T13:09:49.207Z,9.31
2024-02-11T13:12:53.223Z,9.07
2024-02-11T13:15:55.226Z,9.07
2024-02-11T13:18:57.122Z,9.34
2024-02-11T13:21:59.061Z,9.40
2024-02-11T13:25:01.154Z,9.28
2024-02-11T13:28:03.942Z,9.48
2024-02-11T13:31:14.091Z,10.28
2024-02-11T13:34:25.968Z,9.39
2024-02-11T13:37:30.664Z,9.22
2024-02-11T13:40:33.086Z,8.98
2024-02-11T13:43:34.911Z,8.59
2024-02-11T13:46:36.753Z,8.23
2024-02-11T13:49:38.524Z,8.10
2024-02-11T13:52:42.005Z,7.38
2024-02-11T13:55:46.067Z,6.75
2024-02-11T13:58:48.614Z,6.60
2024-02-11T14:01:51.745Z,6.22
2024-02-11T14:04:57.520Z,6.37
2024-02-11T14:07:59.388Z,5.99
2024-02-11T14:11:01.237Z,5.95
2024-02-11T14:14:06.952Z,5.99
2024-02-11T14:17:09.169Z,5.81
2024-02-11T14:20:12.602Z,6.00
2024-02-11T14:23:15.107Z,5.58
2024-02-11T14:26:18.215Z,5.83
2024-02-11T14:29:20.498Z,4.90
2024-02-11T14:32:22.577Z,4.21
2024-02-11T14:35:26.098Z,3.83
2024-02-11T14:38:29.641Z,3.56
2024-02-11T14:41:32.008Z,2.83
2024-02-11T14:44:34.833Z,2.85
2024-02-11T14:47:37.588Z,2.67
2024-02-11T14:50:39.834Z,2.89
2024-02-11T14:53:41.645Z,2.57
2024-02-11T14:56:47.402Z,2.72
2024-02-11T14:59:49.681Z,2.58
2024-02-11T15:02:51.485Z,2.60
2024-02-11T15:05:53.582Z,2.64
2024-02-11T15:08:56.105Z,2.77
2024-02-11T15:11:57.990Z,2.66
2024-02-11T15:15:00.789Z,2.58
2024-02-11T15:18:02.683Z,2.74
2024-02-11T15:21:08.025Z,2.98
2024-02-11T15:24:09.937Z,2.85
2024-02-11T15:27:11.758Z,2.79
2024-02-11T15:30:15.386Z,2.80
2024-02-11T15:33:17.756Z,3.37
2024-02-11T15:36:20.852Z,3.27
2024-02-11T15:39:23.362Z,3.28
2024-02-11T15:42:28.557Z,3.50
2024-02-11T15:45:31.367Z,3.37
2024-02-11T15:48:33.489Z,3.33
2024-02-11T15:51:35.390Z,3.74
2024-02-11T15:54:45.890Z,4.38
2024-02-11T15:57:48.326Z,4.99
2024-02-11T16:00:50.238Z,5.05
2024-02-11T16:03:52.108Z,5.12
2024-02-11T16:06:55.472Z,5.45
2024-02-11T16:09:57.610Z,6.19
2024-02-11T16:13:00.599Z,6.72
2024-02-11T16:16:03.906Z,7.32
2024-02-11T16:19:06.737Z,7.54
2024-02-11T16:22:08.613Z,7.42
2024-02-11T16:25:11.087Z,8.11
2024-02-11T16:28:12.898Z,8.81
2024-02-11T16:31:14.908Z,8.56
2024-02-11T16:34:19.471Z,8.10
2024-02-11T16:37:23.703Z,7.35
2024-02-11T16:40:26.374Z,6.33
2024-02-11T16:43:28.165Z,6.04
2024-02-11T16:46:30.390Z,5.34
2024-02-11T16:49:34.832Z,5.70
2024-02-11T16:52:37.611Z,6.19
2024-02-11T16:55:40.536Z,5.75
2024-02-11T16:58:42.518Z,5.28
2024-02-11T17:01:44.413Z,5.56
2024-02-11T17:04:47.046Z,5.54
2024-02-11T17:07:50.095Z,5.81
2024-02-11T17:10:52.750Z,6.42
2024-02-11T17:13:57.518Z,7.01
2024-02-11T17:17:00.708Z,7.31
2024-02-11T17:20:02.806Z,7.13
2024-02-11T17:23:05.949Z,7.26
2024-02-11T17:26:09.166Z,6.53
2024-02-11T17:29:11.862Z,6.20
2024-02-11T17:32:25.376Z,6.33
2024-02-11T17:35:32.539Z,5.98
2024-02-11T17:38:34.763Z,5.62
2024-02-11T17:41:44.861Z,5.76
2024-02-11T17:44:47.719Z,6.18
2024-02-11T17:47:53.068Z,5.99
2024-02-11T17:50:54.969Z,6.02
2024-02-11T17:54:00.426Z,6.07
2024-02-11T17:57:04.524Z,5.93
2024-02-11T18:00:10.860Z,6.25
2024-02-11T18:03:13.466Z,6.26
2024-02-11T18:06:18.150Z,6.42
2024-02-11T18:09:20.023Z,6.26
2024-02-11T18:12:23.694Z,7.32
2024-02-11T18:15:27.080Z,7.16
2024-02-11T18:18:34.213Z,8.67
2024-02-11T18:21:37.517Z,13.18
2024-02-11T18:24:39.548Z,13.47
2024-02-11T18:27:44.826Z,11.80
2024-02-11T18:30:46.615Z,10.98
2024-02-11T18:33:48.501Z,10.56
2024-02-11T18:36:50.528Z,10.57
2024-02-11T18:39:52.522Z,9.82
2024-02-11T18:42:55.250Z,9.38
2024-02-11T18:45:58.580Z,9.20
2024-02-11T18:49:00.486Z,6.65
2024-02-11T18:52:08.125Z,3.21
2024-02-11T18:55:10.068Z,1.62
2024-02-11T18:58:11.840Z,1.25
2024-02-11T19:01:13.656Z,1.12
2024-02-11T19:04:20.879Z,1.10
2024-02-11T19:07:24.249Z,1.39
2024-02-11T19:10:27.731Z,1.74
2024-02-11T19:13:29.890Z,1.97
2024-02-11T19:16:31.771Z,1.79
2024-02-11T19:19:35.727Z,1.77
2024-02-11T19:22:40.067Z,1.54
2024-02-11T19:25:41.864Z,1.64
2024-02-11T19:28:44.656Z,1.64
2024-02-11T19:31:47.846Z,1.58
2024-02-11T19:34:49.660Z,1.73
2024-02-11T19:37:52.113Z,1.69
2024-02-11T19:40:53.919Z,1.69
2024-02-11T19:43:58.110Z,1.73
2024-02-11T19:47:00.699Z,1.62
2024-02-11T19:50:05.563Z,1.60
2024-02-11T19:53:25.253Z,1.65
2024-02-11T19:56:33.254Z,1.80
2024-02-11T19:59:36.006Z,1.59
2024-02-11T20:02:41.383Z,1.51
2024-02-11T20:05:44.163Z,1.59
2024-02-11T20:08:48.046Z,1.27
2024-02-11T20:11:49.952Z,1.47
2024-02-11T20:14:52.319Z,1.42
2024-02-11T20:17:55.608Z,1.25
2024-02-11T20:20:58.501Z,1.34
2024-02-11T20:24:00.278Z,1.50
2024-02-11T20:27:02.149Z,1.47
2024-02-11T20:30:05.079Z,1.56
2024-02-11T20:33:09.009Z,1.50
2024-02-11T20:36:14.654Z,1.77
2024-02-11T20:39:16.612Z,1.85
2024-02-11T20:42:21.276Z,2.02
2024-02-11T20:45:23.105Z,2.77
2024-02-11T20:48:25.412Z,2.60
2024-02-11T20:51:32.303Z,2.30
2024-02-11T20:54:34.329Z,2.13
2024-02-11T20:57:38.899Z,2.18
2024-02-11T21:00:41.136Z,2.10
2024-02-11T21:03:42.924Z,2.13
2024-02-11T21:06:47.057Z,2.31
2024-02-11T21:09:50.889Z,2.05
2024-02-11T21:12:54.800Z,1.82
2024-02-11T21:15:56.624Z,2.01
2024-02-11T21:18:58.606Z,2.20
2024-02-11T21:22:00.541Z,1.93
2024-02-11T21:25:02.340Z,2.15
2024-02-11T21:28:04.373Z,1.98
2024-02-11T21:31:13.072Z,2.04
2024-02-11T21:34:23.758Z,2.11
2024-02-11T21:37:26.937Z,2.12
2024-02-11T21:40:28.973Z,2.00
2024-02-11T21:43:30.757Z,2.03
2024-02-11T21:46:33.085Z,2.00
2024-02-11T21:49:34.865Z,2.19
2024-02-11T21:52:36.676Z,2.31
2024-02-11T21:55:38.819Z,2.47
2024-02-11T21:58:40.601Z,2.62
2024-02-11T22:01:43.453Z,2.35
2024-02-11T22:04:45.362Z,2.67
2024-02-11T22:07:47.290Z,2.77
2024-02-11T22:10:49.134Z,2.81
2024-02-11T22:13:51.087Z,2.68
2024-02-11T22:16:52.904Z,2.92
2024-02-11T22:19:54.900Z,2.97
2024-02-11T22:22:57.308Z,3.13
2024-02-11T22:26:01.398Z,3.06
2024-02-11T22:29:07.533Z,3.07
2024-02-11T22:32:11.068Z,3.50
2024-02-11T22:35:14.504Z,3.73
2024-02-11T22:38:16.776Z,3.70
2024-02-11T22:41:18.931Z,3.74
2024-02-11T22:44:20.830Z,4.11
2024-02-11T22:47:22.761Z,4.06
2024-02-11T22:50:24.637Z,4.24
2024-02-11T22:53:26.508Z,4.43
2024-02-11T22:56:28.408Z,4.33
2024-02-11T22:59:31.004Z,4.01
2024-02-11T23:02:32.889Z,4.02
2024-02-11T23:05:37.605Z,3.99
2024-02-11T23:08:39.689Z,3.98
2024-02-11T23:11:42.363Z,3.80
2024-02-11T23:14:45.377Z,4.08
2024-02-11T23:17:47.401Z,4.04
2024-02-11T23:20:51.052Z,3.14
2024-02-11T23:23:52.908Z,3.25
2024-02-11T23:27:07.396Z,3.50
2024-02-11T23:30:12.309Z,3.56
2024-02-11T23:33:14.297Z,3.36
2024-02-11T23:36:18.284Z,3.25
2024-02-11T23:39:24.015Z,3.49
2024-02-11T23:42:26.438Z,3.58
2024-02-11T23:45:28.200Z,3.22
2024-02-11T23:48:30.055Z,3.64
2024-02-11T23:51:35.022Z,3.40
2024-02-11T23:54:40.050Z,3.27
2024-02-11T23:57:43.186Z,2.74
